Latest Weather Observations for Redcliffe

IDQ60901

Issued at 10:11 pm EST Thursday 16 August 2018 (issued every 10 minutes, with the page automatically refreshed every 10 minutes)

About weather observations | Map of Brisbane area stations | Latest observations for Brisbane area | Other Formats
Station Details ID: 040958 Name: REDCLIFFE Lat: -27.22 Lon: 153.09 Height: 12.6 m
Data from the previous 72 hours. | See also: Recent months at Redcliffe
Date/Time
EST
Temp
°C
App
Temp
°C
Dew
Point
°C
Rel
Hum
%
Delta-T
°C
Wind Press
QNH
hPa
Press
MSL
hPa
Rain since
9am
mm
Dir  Spd
km/h
Gust
km/h
Spd
kts
Gust
kts
16/10:00pm 15.7 13.8 11.9 78 2.1 NW 13 17 7 9 1013.1 1013.1 0.0
16/09:30pm 16.8 14.7 12.5 76 2.4 NW 15 20 8 11 1013.1 1013.1 0.0
16/09:00pm 17.2 15.0 13.3 78 2.2 NW 17 20 9 11 1013.0 1013.0 0.0
16/08:30pm 18.0 17.0 13.5 75 2.5 NNW 11 15 6 8 1012.8 1012.8 0.0
16/08:00pm 18.3 17.3 13.4 73 2.8 NNW 11 15 6 8 1012.6 1012.6 0.0
16/07:30pm 18.7 17.9 14.0 74 2.7 NNW 11 17 6 9 1012.5 1012.5 0.0
16/07:00pm 19.5 17.3 13.4 68 3.5 NNE 17 19 9 10 1012.3 1012.3 0.0
16/06:30pm 20.1 17.3 13.3 65 3.9 NNE 20 26 11 14 1011.8 1011.8 0.0
16/06:00pm 20.4 17.5 14.1 67 3.7 NNE 22 26 12 14 1011.5 1011.5 0.0
16/05:30pm 20.6 18.4 14.3 67 3.7 NNE 19 22 10 12 1011.2 1011.2 0.0
16/05:00pm 21.5 18.9 13.9 62 4.4 NNE 20 26 11 14 1010.9 1010.9 0.0
16/04:30pm 22.6 19.7 12.8 54 5.6 NE 20 28 11 15 1010.9 1010.9 0.0
16/04:00pm 24.1 21.1 11.8 46 7.0 NNE 19 24 10 13 1010.8 1010.8 0.0
16/03:30pm 24.6 21.1 10.1 40 8.0 NE 19 22 10 12 1010.7 1010.7 0.0
16/03:00pm 24.7 21.0 10.2 40 8.0 ENE 20 24 11 13 1010.7 1010.7 0.0
16/02:30pm 25.7 21.7 8.2 33 9.4 ENE 19 22 10 12 1010.9 1010.9 0.0
16/02:00pm 28.0 21.9 3.0 20 12.4 ENE 24 28 13 15 1011.3 1011.3 0.0
16/01:30pm 28.2 23.9 6.9 26 11.3 NE 19 26 10 14 1011.6 1011.6 0.0
16/01:00pm 27.7 21.4 -4.3 12 13.9 ENE 20 26 11 14 1012.1 1012.1 0.0
16/12:30pm 28.0 25.2 5.0 23 11.8 ENE 9 15 5 8 1012.7 1012.7 0.0
16/12:00pm 26.6 22.2 5.0 25 11.0 NE 17 19 9 10 1013.4 1013.4 0.0
16/11:30am 25.9 21.1 5.5 27 10.4 NE 20 24 11 13 1013.8 1013.8 0.0
16/11:00am 24.8 20.5 7.0 32 9.3 NNE 19 24 10 13 1014.3 1014.3 0.0
16/10:30am 22.3 19.0 9.5 44 6.9 NNE 17 20 9 11 1015.0 1015.0 0.0
16/10:00am 20.5 18.0 9.7 50 5.8 NNE 13 17 7 9 1015.6 1015.6 0.0
16/09:30am 19.2 16.4 8.5 50 5.6 NNE 13 17 7 9 1015.9 1015.9 0.0
16/09:00am 17.5 16.0 9.2 58 4.3 NNW 7 11 4 6 1016.0 1016.0 0.0
16/08:30am 16.7 14.7 10.1 65 3.5 NW 11 13 6 7 1016.1 1016.1 0.0
16/08:00am 15.4 13.1 10.6 73 2.5 NNW 13 15 7 8 1016.0 1016.0 0.0
16/07:30am 14.8 12.8 10.2 74 2.4 N 11 13 6 7 1015.9 1015.9 0.0
16/07:00am 14.4 12.1 10.4 77 2.1 N 13 15 7 8 1015.8 1015.8 0.0
16/06:30am 13.8 11.4 10.2 79 1.9 N 13 15 7 8 1015.6 1015.6 0.0
16/06:00am 13.7 11.5 10.9 83 1.5 N 13 15 7 8 1015.5 1015.5 0.0
16/05:30am 13.5 11.1 9.9 79 1.9 N 13 17 7 9 1015.2 1015.2 0.0
16/05:00am 12.9 10.4 9.7 81 1.6 N 13 17 7 9 1015.1 1015.1 0.0
16/04:30am 12.9 10.5 8.6 75 2.1 N 11 13 6 7 1014.9 1014.9 0.0
16/04:00am 12.5 11.7 8.2 75 2.1 NNW 2 9 1 5 1015.0 1015.0 0.0
16/03:30am 12.3 10.2 8.2 76 2.0 N 9 11 5 6 1015.0 1015.0 0.0
16/03:00am 12.8 10.2 7.9 72 2.4 NW 11 13 6 7 1015.1 1015.1 0.0
16/02:30am 13.2 10.8 8.7 74 2.3 WNW 11 15 6 8 1015.2 1015.2 0.0
16/02:00am 14.0 11.8 9.2 73 2.4 NW 11 15 6 8 1015.6 1015.6 0.0
16/01:30am 14.6 13.1 10.4 76 2.2 NNW 9 13 5 7 1015.9 1015.9 0.0
16/01:00am 15.1 13.4 11.1 77 2.1 NNW 11 15 6 8 1016.2 1016.2 0.0
16/12:30am 15.6 13.1 11.2 75 2.4 NNW 15 20 8 11 1016.3 1016.3 0.0
16/12:00am 15.8 13.1 11.6 76 2.3 NNW 17 24 9 13 1016.4 1016.4 0.0
 
Date/Time
EST
Temp
°C
App
Temp
°C
Dew
Point
°C
Rel
Hum
%
Delta-T
°C
Wind Press
QNH
hPa
Press
MSL
hPa
Rain since
9am
mm
Dir  Spd
km/h
Gust
km/h
Spd
kts
Gust
kts
15/11:30pm 15.6 13.6 11.6 77 2.2 NNW 13 19 7 10 1016.5 1016.5 0.0
15/11:00pm 15.1 13.6 11.9 81 1.7 NNW 11 15 6 8 1016.6 1016.6 0.0
15/10:30pm 14.8 13.2 11.6 81 1.7 NNW 11 15 6 8 1016.7 1016.7 0.0
15/10:00pm 15.5 14.0 11.9 79 1.9 NNW 11 17 6 9 1016.7 1016.7 0.0
15/09:30pm 16.4 14.6 12.0 75 2.4 NNW 13 17 7 9 1016.9 1016.9 0.0
15/09:00pm 17.4 14.6 12.5 73 2.7 NNW 19 26 10 14 1016.9 1016.9 0.0
15/08:30pm 17.9 15.2 13.0 73 2.7 N 19 24 10 13 1016.8 1016.8 0.0
15/08:00pm 18.2 15.1 13.5 74 2.7 N 22 32 12 17 1016.8 1016.8 0.0
15/07:30pm 18.2 15.8 13.9 76 2.5 N 19 26 10 14 1016.6 1016.6 0.0
15/07:00pm 18.3 14.6 14.0 76 2.5 N 26 32 14 17 1016.8 1016.8 0.0
15/06:30pm 18.9 14.2 14.4 75 2.6 N 32 35 17 19 1016.5 1016.5 0.0
15/06:00pm 19.2 14.3 14.2 73 2.9 N 33 39 18 21 1016.2 1016.2 0.0
15/05:30pm 19.5 14.3 13.4 68 3.5 N 33 39 18 21 1016.0 1016.0 0.0
15/05:00pm 20.1 14.5 13.3 65 3.9 N 35 41 19 22 1015.8 1015.8 0.0
15/04:30pm 20.4 15.3 13.6 65 3.9 NNE 33 43 18 23 1015.6 1015.6 0.0
15/04:00pm 21.0 15.2 12.7 59 4.7 NNE 35 41 19 22 1015.6 1015.6 0.0
15/03:30pm 21.6 15.9 11.0 51 5.8 NNE 32 37 17 20 1015.8 1015.8 0.0
15/03:00pm 22.1 17.2 11.2 50 6.0 NNE 28 32 15 17 1016.0 1016.0 0.0
15/02:30pm 22.4 17.2 10.2 46 6.7 NNE 28 32 15 17 1016.3 1016.3 0.0
15/02:00pm 23.2 17.7 9.2 41 7.5 NE 28 32 15 17 1016.7 1016.7 0.0
15/01:30pm 23.7 18.8 8.6 38 8.1 NE 24 28 13 15 1017.3 1017.3 0.0
15/01:00pm 23.9 19.2 6.2 32 9.0 NE 20 24 11 13 1017.9 1017.9 0.0
15/12:30pm 23.7 19.8 7.3 35 8.6 NNE 17 19 9 10 1018.7 1018.7 0.0
15/12:00pm 22.5 18.6 7.1 37 7.9 NNE 17 19 9 10 1019.3 1019.3 0.0
15/11:30am 21.7 17.9 7.5 40 7.3 NNE 17 20 9 11 1019.9 1019.9 0.0
15/11:00am 20.2 16.5 7.9 45 6.3 NNE 17 19 9 10 1020.6 1020.6 0.0
15/10:30am 19.9 16.6 9.5 51 5.5 NNE 17 19 9 10 1021.0 1021.0 0.0
15/10:00am 18.0 15.0 9.1 56 4.6 NNE 15 17 8 9 1021.4 1021.4 0.0
15/09:30am 17.3 14.7 9.5 60 4.1 N 13 19 7 10 1021.5 1021.5 0.0
15/09:00am 15.5 12.3 8.3 62 3.6 N 15 20 8 11 1021.8 1021.8 0.0
15/08:30am 14.4 12.4 8.6 68 2.9 N 9 15 5 8 1021.8 1021.8 0.0
15/08:00am 13.3 11.7 8.8 74 2.3 NW 7 9 4 5 1021.7 1021.7 0.0
15/07:30am 11.4 9.6 7.9 79 1.7 NW 7 11 4 6 1021.5 1021.5 0.0
15/07:00am 9.8 7.4 7.2 84 1.2 NW 9 13 5 7 1021.4 1021.4 0.0
15/06:30am 9.1 8.1 7.4 89 0.8 NNW 2 7 1 4 1021.3 1021.3 0.0
15/06:00am 8.9 5.7 7.0 88 0.9 WNW 13 15 7 8 1021.3 1021.3 0.0
15/05:30am 8.9 5.7 6.9 87 0.9 WNW 13 15 7 8 1021.2 1021.2 0.0
15/05:00am 9.2 6.5 7.3 88 0.9 WNW 11 13 6 7 1021.0 1021.0 0.0
15/04:30am 9.4 6.3 7.2 86 1.0 WNW 13 15 7 8 1021.0 1021.0 0.0
15/04:00am 10.1 7.6 8.0 87 1.0 NW 11 13 6 7 1020.9 1020.9 0.0
15/03:30am 10.8 8.1 9.1 89 0.8 NW 13 15 7 8 1021.0 1021.0 0.0
15/03:00am 10.8 8.2 9.2 90 0.8 NW 13 15 7 8 1020.9 1020.9 0.0
15/02:30am 10.7 8.4 9.0 89 0.8 NW 11 15 6 8 1021.0 1021.0 0.0
15/02:00am 10.8 8.9 9.1 89 0.8 NW 9 11 5 6 1021.2 1021.2 0.0
15/01:30am 10.1 8.3 8.0 87 1.0 WNW 7 9 4 5 1021.5 1021.5 0.0
15/01:00am 10.5 8.4 8.3 86 1.1 W 9 11 5 6 1021.7 1021.7 0.0
15/12:30am 11.4 9.6 9.3 87 1.1 WNW 9 11 5 6 1021.9 1021.9 0.0
15/12:00am 12.1 10.2 9.1 82 1.5 NW 9 11 5 6 1021.9 1021.9 0.0
 
Date/Time
EST
Temp
°C
App
Temp
°C
Dew
Point
°C
Rel
Hum
%
Delta-T
°C
Wind Press
QNH
hPa
Press
MSL
hPa
Rain since
9am
mm
Dir  Spd
km/h
Gust
km/h
Spd
kts
Gust
kts
14/11:30pm 13.6 11.6 10.2 80 1.8 NNW 11 19 6 10 1022.1 1022.1 0.0
14/11:00pm 14.1 12.5 10.3 78 2.0 NNW 9 13 5 7 1022.4 1022.4 0.0
14/10:30pm 14.9 13.1 10.9 77 2.1 NNW 11 17 6 9 1022.6 1022.6 0.0
14/10:00pm 14.6 12.8 11.0 79 1.9 NW 11 13 6 7 1022.7 1022.7 0.0
14/09:30pm 13.9 12.8 10.7 81 1.7 NW 7 9 4 5 1022.6 1022.6 0.0
14/09:00pm 14.0 12.8 10.2 78 2.0 NW 7 9 4 5 1022.8 1022.8 0.0
14/08:30pm 14.8 13.3 10.6 76 2.2 NNW 9 13 5 7 1022.6 1022.6 0.0
14/08:00pm 15.7 14.0 11.3 75 2.4 NNW 11 15 6 8 1022.4 1022.4 0.0
14/07:30pm 16.1 14.5 11.7 75 2.4 N 11 15 6 8 1022.3 1022.3 0.0
14/07:00pm 16.7 14.7 11.6 72 2.8 N 13 17 7 9 1022.2 1022.2 0.0
14/06:30pm 17.2 14.7 11.2 68 3.2 N 15 19 8 10 1022.0 1022.0 0.0
14/06:00pm 17.5 14.0 10.9 65 3.5 N 20 24 11 13 1021.8 1021.8 0.0
14/05:30pm 17.7 12.5 10.1 61 4.0 NNE 28 30 15 16 1021.6 1021.6 0.0
14/05:00pm 18.3 13.4 9.9 58 4.4 NNE 26 28 14 15 1021.4 1021.4 0.0
14/04:30pm 18.6 13.3 8.6 52 5.2 NE 26 30 14 16 1021.1 1021.1 0.0
14/04:00pm 19.3 14.0 8.6 50 5.6 NE 26 30 14 16 1020.9 1020.9 0.0
14/03:30pm 19.4 15.2 8.4 49 5.7 NE 20 24 11 13 1021.1 1021.1 0.0
14/03:00pm 19.4 15.0 7.5 46 6.0 NE 20 24 11 13 1021.2 1021.2 0.0
14/02:30pm 20.2 16.4 7.6 44 6.5 ENE 17 19 9 10 1021.4 1021.4 0.0
14/02:00pm 19.5 16.3 6.9 44 6.3 E 13 15 7 8 1021.6 1021.6 0.0
14/01:30pm 19.7 16.4 6.4 42 6.7 E 13 15 7 8 1021.7 1021.7 0.0
14/01:00pm 21.6 18.5 7.1 39 7.4 ENE 13 13 7 7 1022.1 1022.1 0.0
14/12:30pm 20.8 17.6 6.7 40 7.1 NE 13 15 7 8 1022.8 1022.8 0.0
14/12:00pm 20.3 17.2 5.5 38 7.3 NE 11 13 6 7 1023.5 1023.5 0.0
14/11:30am 20.6 17.8 5.0 36 7.6 E 9 11 5 6 1024.2 1024.2 0.0
14/11:00am 20.5 17.7 5.3 37 7.4 SE 9 11 5 6 1024.8 1024.8 0.0
14/10:30am 19.0 15.3 4.4 38 7.0 SSE 13 17 7 9 1025.3 1025.3 0.0
14/10:00am 17.7 14.5 2.8 37 6.8 SSW 9 13 5 7 1025.5 1025.5 0.0
14/09:30am 16.5 12.5 2.9 40 6.2 SSW 13 17 7 9 1025.5 1025.5 0.0
14/09:00am 14.5 10.6 3.6 48 4.9 WSW 13 17 7 9 1025.3 1025.3 0.0
14/08:30am 12.9 9.8 3.8 54 4.1 W 9 11 5 6 1025.1 1025.1 0.0
14/08:00am 11.1 7.5 3.2 58 3.4 SW 11 15 6 8 1025.2 1025.2 0.0
14/07:30am 9.5 5.5 3.0 64 2.8 WSW 13 15 7 8 1024.8 1024.8 0.0
14/07:00am 7.8 4.3 3.3 73 1.9 WSW 11 15 6 8 1024.4 1024.4 0.0
14/06:30am 7.1 3.1 2.8 74 1.8 WSW 13 15 7 8 1024.2 1024.2 0.0
14/06:00am 7.0 2.6 2.9 75 1.7 WSW 15 19 8 10 1023.9 1023.9 0.0
14/05:30am 7.7 3.3 2.8 71 2.1 WSW 15 20 8 11 1023.3 1023.3 0.0
14/05:00am 7.5 3.4 2.2 69 2.2 WSW 13 19 7 10 1023.0 1023.0 0.0
14/04:30am 7.9 4.0 3.2 72 2.0 SW 13 17 7 9 1023.0 1023.0 0.0
14/04:00am 8.7 5.0 4.3 74 1.9 SW 13 17 7 9 1022.7 1022.7 0.0
14/03:30am 8.7 4.9 4.1 73 2.0 SW 13 15 7 8 1022.8 1022.8 0.0
14/03:00am 8.7 4.5 3.7 71 2.2 SW 15 19 8 10 1023.2 1023.2 0.0
14/02:30am 8.6 4.8 4.0 73 2.0 SW 13 15 7 8 1022.9 1022.9 0.0
14/02:00am 8.9 5.1 3.9 71 2.2 SW 13 15 7 8 1023.2 1023.2 0.0
14/01:30am 8.4 5.6 5.2 80 1.4 SSW 9 13 5 7 1023.2 1023.2 0.0
14/01:00am 8.4 6.2 5.3 81 1.4 WSW 6 9 3 5 1023.2 1023.2 0.0
14/12:30am 9.1 7.9 4.7 74 2.0 CALM 0 0 0 0 1023.1 1023.1 0.0
14/12:00am 9.7 6.8 4.5 70 2.3 W 9 11 5 6 1023.5 1023.5 0.0
 
Date/Time
EST
Temp
°C
App
Temp
°C
Dew
Point
°C
Rel
Hum
%
Delta-T
°C
Wind Press
QNH
hPa
Press
MSL
hPa
Rain since
9am
mm
Dir  Spd
km/h
Gust
km/h
Spd
kts
Gust
kts
13/11:30pm 9.7 6.3 4.1 68 2.5 WNW 11 13 6 7 1023.6 1023.6 0.0
13/11:00pm 10.3 6.9 4.0 65 2.8 W 11 11 6 6 1023.5 1023.5 0.0
13/10:30pm 11.1 7.6 3.4 59 3.4 W 11 11 6 6 1023.6 1023.6 0.0

Latest Capital City Observations: Canberra | Sydney | Melbourne | Brisbane | Adelaide | Perth | Hobart | Darwin

Other Formats:

Comma delimited format used in spreadsheet applications
http://www.bom.gov.au/fwo/IDQ60901/IDQ60901.95591.axf

JavaScript Object Notation format (JSON) in row-major order
http://www.bom.gov.au/fwo/IDQ60901/IDQ60901.95591.json